Time,TemperatureF,DewpointF,PressureIn,WindDirection,WindDirectionDegrees,WindSpeedMPH,WindSpeedGustMPH,Humidity,HourlyPrecipIn,Conditions,Clouds,dailyrainin,SoftwareType,DateUTC
2013-06-13 00:13:00,65.7,65.0,28.13,WNW,285,0.0,0.0,96,0.00,,,0.00,weatherlink.com 1.10,2013-06-13 04:13:00,
2013-06-13 00:28:00,65.9,65.0,28.13,WNW,285,0.0,1.0,97,0.00,,,0.00,weatherlink.com 1.10,2013-06-13 04:28:00,
2013-06-13 00:43:00,66.1,65.0,28.13,NW,318,2.0,4.0,97,0.00,,,0.00,weatherlink.com 1.10,2013-06-13 04:43:00,
2013-06-13 00:58:00,66.5,65.0,28.12,WNW,300,0.0,3.0,96,0.00,,,0.00,weatherlink.com 1.10,2013-06-13 04:58:00,
2013-06-13 01:13:00,66.4,65.0,28.12,NNW,329,0.0,1.0,96,0.00,,,0.00,weatherlink.com 1.10,2013-06-13 05:13:00,
2013-06-13 01:28:00,66.3,65.0,28.12,NW,311,0.0,0.0,95,0.00,,,0.00,weatherlink.com 1.10,2013-06-13 05:28:00,
2013-06-13 01:43:00,65.9,65.0,28.13,West,271,0.0,1.0,96,0.00,,,0.00,weatherlink.com 1.10,2013-06-13 05:43:00,
2013-06-13 01:58:00,65.9,65.0,28.13,East,95,0.0,5.0,96,0.00,,,0.00,weatherlink.com 1.10,2013-06-13 05:58:00,
2013-06-13 02:13:00,65.8,65.0,28.11,SE,133,0.0,1.0,96,0.00,,,0.00,weatherlink.com 1.10,2013-06-13 06:13:00,
2013-06-13 02:28:00,65.3,64.0,28.10,SE,143,0.0,1.0,96,0.00,,,0.00,weatherlink.com 1.10,2013-06-13 06:28:00,
2013-06-13 02:43:00,65.1,64.0,28.10,SE,143,0.0,0.0,97,0.00,,,0.00,weatherlink.com 1.10,2013-06-13 06:43:00,
2013-06-13 02:58:00,64.9,64.0,28.09,SE,143,0.0,0.0,97,0.00,,,0.00,weatherlink.com 1.10,2013-06-13 06:58:00,
2013-06-13 03:13:00,65.1,64.0,28.09,West,281,0.0,2.0,97,0.00,,,0.00,weatherlink.com 1.10,2013-06-13 07:13:00,
2013-06-13 03:28:00,65.1,64.0,28.07,NW,318,0.0,1.0,97,0.00,,,0.00,weatherlink.com 1.10,2013-06-13 07:28:00,
2013-06-13 03:43:00,64.7,64.0,28.06,NW,315,0.0,0.0,97,0.00,,,0.00,weatherlink.com 1.10,2013-06-13 07:43:00,
2013-06-13 03:58:00,64.3,64.0,28.05,West,270,0.0,1.0,97,0.00,,,0.00,weatherlink.com 1.10,2013-06-13 07:58:00,
2013-06-13 04:13:00,63.9,63.0,28.04,West,269,0.0,0.0,97,0.00,,,0.00,weatherlink.com 1.10,2013-06-13 08:13:00,
2013-06-13 04:28:00,63.4,63.0,28.03,West,269,0.0,0.0,97,0.00,,,0.00,weatherlink.com 1.10,2013-06-13 08:28:00,
2013-06-13 04:43:00,63.5,63.0,28.02,West,270,0.0,0.0,97,0.00,,,0.00,weatherlink.com 1.10,2013-06-13 08:43:00,
2013-06-13 04:58:00,63.4,63.0,28.02,West,270,0.0,0.0,98,0.00,,,0.00,weatherlink.com 1.10,2013-06-13 08:58:00,
2013-06-13 05:13:00,63.4,63.0,28.01,West,269,0.0,0.0,98,0.00,,,0.00,weatherlink.com 1.10,2013-06-13 09:13:00,
2013-06-13 05:28:00,63.2,63.0,28.00,West,270,0.0,0.0,98,0.00,,,0.00,weatherlink.com 1.10,2013-06-13 09:28:00,
2013-06-13 05:43:00,62.9,62.0,27.99,West,270,0.0,0.0,98,0.00,,,0.00,weatherlink.com 1.10,2013-06-13 09:43:00,
2013-06-13 05:58:00,63.0,63.0,27.98,West,270,0.0,0.0,98,0.00,,,0.00,weatherlink.com 1.10,2013-06-13 09:58:00,
2013-06-13 06:13:00,63.1,63.0,27.98,West,270,0.0,0.0,98,0.00,,,0.00,weatherlink.com 1.10,2013-06-13 10:13:00,
2013-06-13 06:28:00,63.4,63.0,27.98,West,270,0.0,1.0,98,0.00,,,0.00,weatherlink.com 1.10,2013-06-13 10:28:00,
2013-06-13 06:43:00,63.9,63.0,27.98,SW,229,0.0,0.0,98,0.00,,,0.00,weatherlink.com 1.10,2013-06-13 10:43:00,
2013-06-13 06:58:00,64.1,64.0,27.97,SW,229,0.0,0.0,98,0.00,,,0.00,weatherlink.com 1.10,2013-06-13 10:58:00,
2013-06-13 07:13:00,64.2,64.0,27.98,SW,218,0.0,0.0,98,0.00,,,0.00,weatherlink.com 1.10,2013-06-13 11:13:00,
2013-06-13 07:28:00,64.3,64.0,27.97,SW,218,0.0,0.0,98,0.00,,,0.00,weatherlink.com 1.10,2013-06-13 11:28:00,
2013-06-13 07:43:00,66.0,66.0,28.04,WNW,287,2.0,11.0,98,0.16,,,0.16,weatherlink.com 1.10,2013-06-13 11:43:00,
2013-06-13 07:58:00,66.4,65.0,28.04,SE,129,0.0,2.0,96,0.19,,,0.19,weatherlink.com 1.10,2013-06-13 11:58:00,
2013-06-13 08:14:00,66.1,65.0,28.05,SSE,154,1.0,6.0,95,0.19,,,0.19,weatherlink.com 1.10,2013-06-13 12:14:00,
2013-06-13 08:29:00,65.5,64.0,28.04,SE,138,0.0,4.0,96,0.20,,,0.20,weatherlink.com 1.10,2013-06-13 12:29:00,
2013-06-13 08:44:00,65.5,64.0,28.04,NE,46,0.0,2.0,93,0.05,,,0.21,weatherlink.com 1.10,2013-06-13 12:44:00,
2013-06-13 08:59:00,66.4,63.0,28.06,NNW,339,0.0,12.0,87,0.03,,,0.22,weatherlink.com 1.10,2013-06-13 12:59:00,
2013-06-13 09:14:00,65.1,63.0,28.05,NNW,338,0.0,9.0,93,0.06,,,0.25,weatherlink.com 1.10,2013-06-13 13:14:00,
2013-06-13 09:29:00,63.9,63.0,28.00,ESE,120,0.0,1.0,96,0.07,,,0.27,weatherlink.com 1.10,2013-06-13 13:29:00,
2013-06-13 09:44:00,63.5,62.0,28.01,WSW,242,0.0,3.0,96,0.06,,,0.27,weatherlink.com 1.10,2013-06-13 13:44:00,
2013-06-13 09:59:00,63.6,63.0,27.99,North,354,1.0,3.0,97,0.06,,,0.28,weatherlink.com 1.10,2013-06-13 13:59:00,
2013-06-13 10:14:00,63.7,63.0,27.98,NNW,330,0.0,2.0,96,0.04,,,0.29,weatherlink.com 1.10,2013-06-13 14:14:00,
2013-06-13 10:29:00,63.9,63.0,27.98,NNW,330,1.0,2.0,97,0.02,,,0.29,weatherlink.com 1.10,2013-06-13 14:29:00,
2013-06-13 10:44:00,64.2,63.0,27.97,NNW,330,0.0,0.0,97,0.02,,,0.29,weatherlink.com 1.10,2013-06-13 14:44:00,
2013-06-13 10:59:00,65.3,65.0,27.96,NNW,339,2.0,3.0,97,0.01,,,0.29,weatherlink.com 1.10,2013-06-13 14:59:00,
2013-06-13 11:14:00,66.7,65.0,27.96,NW,314,2.0,6.0,94,0.01,,,0.30,weatherlink.com 1.10,2013-06-13 15:14:00,
2013-06-13 11:29:00,66.0,64.0,27.95,NE,53,0.0,3.0,94,0.09,,,0.38,weatherlink.com 1.10,2013-06-13 15:29:00,
2013-06-13 11:44:00,65.4,64.0,27.94,NNE,25,1.0,4.0,95,0.09,,,0.38,weatherlink.com 1.10,2013-06-13 15:44:00,
2013-06-13 11:59:00,65.1,64.0,27.94,West,276,1.0,5.0,95,0.26,,,0.55,weatherlink.com 1.10,2013-06-13 15:59:00,
2013-06-13 12:14:00,65.6,65.0,27.92,East,83,0.0,2.0,97,0.24,,,0.55,weatherlink.com 1.10,2013-06-13 16:14:00,
2013-06-13 12:29:00,69.0,68.0,27.91,NNW,329,3.0,6.0,97,0.17,,,0.55,weatherlink.com 1.10,2013-06-13 16:29:00,
2013-06-13 12:44:00,72.7,70.0,27.90,NW,309,4.0,5.0,92,0.16,,,0.55,weatherlink.com 1.10,2013-06-13 16:44:00,
2013-06-13 12:59:00,75.5,71.0,27.89,NNW,329,5.0,7.0,86,0.00,,,0.55,weatherlink.com 1.10,2013-06-13 16:59:00,
2013-06-13 13:14:00,75.1,71.0,27.89,NW,315,3.0,5.0,86,0.00,,,0.55,weatherlink.com 1.10,2013-06-13 17:14:00,
2013-06-13 13:29:00,75.5,71.0,27.87,NNE,15,0.0,6.0,87,0.01,,,0.56,weatherlink.com 1.10,2013-06-13 17:29:00,
2013-06-13 13:44:00,72.7,66.0,27.93,SSE,159,3.0,13.0,79,0.08,,,0.63,weatherlink.com 1.10,2013-06-13 17:44:00,
2013-06-13 13:59:00,69.2,64.0,27.92,SSW,207,0.0,8.0,83,0.08,,,0.63,weatherlink.com 1.10,2013-06-13 17:59:00,
2013-06-13 14:14:00,67.9,65.0,27.93,SSE,147,1.0,5.0,89,0.08,,,0.63,weatherlink.com 1.10,2013-06-13 18:14:00,
2013-06-13 14:29:00,68.6,66.0,27.91,South,190,0.0,3.0,90,0.06,,,0.63,weatherlink.com 1.10,2013-06-13 18:29:00,
2013-06-13 14:44:00,69.6,66.0,27.89,SE,138,1.0,2.0,89,0.00,,,0.63,weatherlink.com 1.10,2013-06-13 18:44:00,
2013-06-13 14:59:00,69.2,66.0,27.89,South,179,0.0,3.0,90,0.00,,,0.63,weatherlink.com 1.10,2013-06-13 18:59:00,
2013-06-13 15:14:00,70.6,67.0,27.87,SSE,165,4.0,6.0,87,0.00,,,0.63,weatherlink.com 1.10,2013-06-13 19:14:00,
2013-06-13 15:29:00,71.2,66.0,27.87,South,174,2.0,5.0,82,0.00,,,0.63,weatherlink.com 1.10,2013-06-13 19:29:00,
2013-06-13 15:44:00,72.3,67.0,27.87,SSE,153,3.0,5.0,82,0.00,,,0.63,weatherlink.com 1.10,2013-06-13 19:44:00,
2013-06-13 15:59:00,71.6,64.0,27.88,SE,127,6.0,8.0,78,0.00,,,0.63,weatherlink.com 1.10,2013-06-13 19:59:00,
2013-06-13 16:14:00,70.4,65.0,27.89,ESE,110,2.0,3.0,83,0.00,,,0.00,weatherlink.com 1.10,2013-06-13 20:14:00,
2013-06-13 16:29:00,70.2,65.0,27.89,WNW,283,1.0,5.0,83,0.00,,,0.00,weatherlink.com 1.10,2013-06-13 20:29:00,
2013-06-13 16:44:00,70.0,66.0,27.89,NNW,336,0.0,3.0,88,0.00,,,0.00,weatherlink.com 1.10,2013-06-13 20:44:00,
2013-06-13 16:59:00,71.8,65.0,27.88,North,354,3.0,5.0,79,0.00,,,0.00,weatherlink.com 1.10,2013-06-13 20:59:00,
2013-06-13 17:14:00,72.4,65.0,27.88,SE,146,1.0,7.0,77,0.00,,,0.00,weatherlink.com 1.10,2013-06-13 21:14:00,
2013-06-13 17:29:00,73.0,64.0,27.88,SE,131,1.0,8.0,74,0.00,,,0.00,weatherlink.com 1.10,2013-06-13 21:29:00,
2013-06-13 17:44:00,72.6,63.0,27.88,SSE,153,0.0,6.0,73,0.00,,,0.00,weatherlink.com 1.10,2013-06-13 21:44:00,
2013-06-13 17:59:00,72.2,63.0,27.89,SE,133,4.0,7.0,73,0.00,,,0.00,weatherlink.com 1.10,2013-06-13 21:59:00,
2013-06-13 18:14:00,71.2,63.0,27.91,ENE,71,1.0,4.0,74,0.00,,,0.00,weatherlink.com 1.10,2013-06-13 22:14:00,
2013-06-13 18:29:00,70.0,62.0,27.92,ENE,70,4.0,9.0,75,0.00,,,0.00,weatherlink.com 1.10,2013-06-13 22:29:00,
2013-06-13 18:44:00,69.4,62.0,27.93,East,79,1.0,2.0,77,0.00,,,0.00,weatherlink.com 1.10,2013-06-13 22:44:00,
2013-06-13 19:00:00,69.0,61.0,27.93,NW,326,2.0,6.0,76,0.00,,,0.00,weatherlink.com 1.10,2013-06-13 23:00:00,
2013-06-13 19:15:00,67.5,63.0,27.95,NNE,23,6.0,8.0,84,0.00,,,0.00,weatherlink.com 1.10,2013-06-13 23:15:00,
2013-06-13 19:30:00,64.6,61.0,27.96,NW,312,3.0,7.0,88,0.02,,,0.02,weatherlink.com 1.10,2013-06-13 23:30:00,
2013-06-13 19:45:00,63.6,60.0,27.98,NW,315,0.0,6.0,88,0.02,,,0.02,weatherlink.com 1.10,2013-06-13 23:45:00,
2013-06-13 20:00:00,62.6,58.0,28.00,NW,316,2.0,4.0,86,0.02,,,0.02,weatherlink.com 1.10,2013-06-14 00:00:00,
2013-06-13 20:15:00,62.2,58.0,28.00,NW,312,1.0,3.0,87,0.02,,,0.02,weatherlink.com 1.10,2013-06-14 00:15:00,
2013-06-13 20:30:00,61.9,58.0,28.00,NW,323,0.0,4.0,88,0.00,,,0.02,weatherlink.com 1.10,2013-06-14 00:30:00,
2013-06-13 20:45:00,61.6,59.0,28.00,NW,307,0.0,1.0,90,0.00,,,0.02,weatherlink.com 1.10,2013-06-14 00:45:00,
2013-06-13 21:00:00,61.1,59.0,28.01,SW,225,0.0,0.0,92,0.00,,,0.02,weatherlink.com 1.10,2013-06-14 01:00:00,
2013-06-13 21:15:00,60.3,58.0,28.00,SW,226,0.0,1.0,92,0.00,,,0.02,weatherlink.com 1.10,2013-06-14 01:15:00,
2013-06-13 21:30:00,59.7,58.0,28.01,NW,323,0.0,0.0,93,0.00,,,0.02,weatherlink.com 1.10,2013-06-14 01:30:00,
2013-06-13 21:45:00,59.3,58.0,28.01,South,176,0.0,1.0,95,0.00,,,0.02,weatherlink.com 1.10,2013-06-14 01:45:00,
2013-06-13 22:00:00,59.2,58.0,28.01,South,176,0.0,1.0,95,0.00,,,0.02,weatherlink.com 1.10,2013-06-14 02:00:00,
2013-06-13 22:15:00,59.2,58.0,28.00,South,176,0.0,1.0,95,0.00,,,0.02,weatherlink.com 1.10,2013-06-14 02:15:00,
2013-06-13 22:30:00,59.0,58.0,28.01,South,177,0.0,0.0,95,0.00,,,0.02,weatherlink.com 1.10,2013-06-14 02:30:00,
2013-06-13 22:45:00,59.3,58.0,28.01,East,96,0.0,2.0,96,0.00,,,0.02,weatherlink.com 1.10,2013-06-14 02:45:00,
2013-06-13 23:00:00,59.7,59.0,28.02,NW,304,1.0,3.0,96,0.02,,,0.04,weatherlink.com 1.10,2013-06-14 03:00:00,
2013-06-13 23:15:00,59.7,58.0,28.02,ENE,64,0.0,3.0,94,0.04,,,0.06,weatherlink.com 1.10,2013-06-14 03:15:00,
2013-06-13 23:30:00,59.5,58.0,28.02,WNW,288,0.0,1.0,94,0.04,,,0.06,weatherlink.com 1.10,2013-06-14 03:30:00,
2013-06-13 23:45:00,59.0,57.0,28.02,NNW,344,0.0,2.0,94,0.04,,,0.06,weatherlink.com 1.10,2013-06-14 03:45:00,